Time;durP1;ratioP1;P1;durP2;ratioP2;P2;SDS_P1;SDS_P2;PMS_P1;PMS_P2;Temp;Humidity;BMP_temperature;BMP_pressure;BME280_temperature;BME280_humidity;BME280_pressure;Samples;Min_cycle;Max_cycle;Signal;HPM_P1;HPM_P2
2021/10/05 00:00:55;;;;;;;27.87;21.40;;;;;;;14.98;72.77;96467.84;5092828;28;20201;-66
2021/10/05 00:03:20;;;;;;;27.90;20.57;;;;;;;14.95;72.94;96472.72;5092556;28;20542;-66
2021/10/05 00:05:46;;;;;;;26.30;19.63;;;;;;;15.01;72.77;96471.91;5092423;28;20600;-65
2021/10/05 00:08:12;;;;;;;25.33;18.73;;;;;;;15.00;72.66;96472.91;5091902;28;20328;-66
2021/10/05 00:10:37;;;;;;;26.23;20.07;;;;;;;14.66;73.97;96464.88;5092207;28;20177;-65
2021/10/05 00:13:03;;;;;;;27.97;20.40;;;;;;;14.82;73.71;96460.28;5092384;28;20246;-66
2021/10/05 00:15:28;;;;;;;25.20;19.27;;;;;;;14.88;73.09;96460.31;5092203;28;20666;-65
2021/10/05 00:17:54;;;;;;;28.00;19.80;;;;;;;14.93;73.14;96458.91;5090679;28;20296;-66
2021/10/05 00:20:20;;;;;;;27.47;20.00;;;;;;;15.00;72.68;96454.44;5091352;28;20568;-66
2021/10/05 00:22:46;;;;;;;28.17;19.93;;;;;;;15.00;72.60;96455.28;5086994;28;20177;-65
2021/10/05 00:25:12;;;;;;;23.77;19.13;;;;;;;15.00;72.54;96444.72;5091794;28;20190;-66
2021/10/05 00:27:38;;;;;;;27.40;20.07;;;;;;;14.92;72.59;96442.28;5091112;28;20748;-66
2021/10/05 00:30:05;;;;;;;28.57;20.33;;;;;;;14.89;72.73;96432.91;5091568;28;20419;-64
2021/10/05 00:32:30;;;;;;;27.63;19.67;;;;;;;14.67;73.69;96427.00;5092192;28;20424;-64
2021/10/05 00:34:57;;;;;;;32.63;20.50;;;;;;;14.81;73.48;96414.66;5092483;28;20416;-65
2021/10/05 00:37:23;;;;;;;29.20;21.50;;;;;;;14.84;73.57;96411.63;5092269;28;20198;-66
2021/10/05 00:39:48;;;;;;;26.93;19.80;;;;;;;14.97;73.01;96407.38;5091755;28;20448;-66
2021/10/05 00:42:14;;;;;;;28.83;20.40;;;;;;;14.82;73.27;96411.00;5083823;28;20251;-65
2021/10/05 00:44:40;;;;;;;30.03;20.97;;;;;;;14.98;73.11;96411.66;5090685;28;20186;-65
2021/10/05 00:47:07;;;;;;;27.80;20.33;;;;;;;15.07;72.74;96407.81;5091874;28;20197;-64
2021/10/05 00:49:33;;;;;;;26.43;20.00;;;;;;;15.02;72.76;96407.59;5091970;28;20428;-66
2021/10/05 00:52:01;;;;;;;39.63;20.10;;;;;;;14.96;73.09;96401.28;5086969;28;20425;-65
2021/10/05 00:54:27;;;;;;;26.40;20.20;;;;;;;15.08;72.74;96396.25;5091710;28;20450;-65
2021/10/05 00:56:54;;;;;;;27.77;20.03;;;;;;;15.11;72.40;96382.66;5091533;28;20448;-66
2021/10/05 00:59:19;;;;;;;29.90;21.67;;;;;;;14.92;72.88;96378.97;5091098;28;20451;-65
2021/10/05 01:01:45;;;;;;;30.83;21.97;;;;;;;14.99;72.68;96381.63;5091278;28;20430;-65
2021/10/05 01:04:11;;;;;;;28.00;19.73;;;;;;;14.91;72.91;96372.06;5090162;28;20186;-66
2021/10/05 01:06:45;;;;;;;27.47;20.17;;;;;;;14.89;73.09;96356.41;5091594;28;20177;-66
2021/10/05 01:09:10;;;;;;;30.20;20.37;;;;;;;14.68;73.65;96346.84;5091434;28;20771;-67
2021/10/05 01:11:36;;;;;;;30.17;20.27;;;;;;;14.68;73.90;96338.94;5091375;28;20431;-66
2021/10/05 01:14:02;;;;;;;31.93;22.03;;;;;;;14.40;75.15;96333.75;5092714;28;20189;-66
2021/10/05 01:16:27;;;;;;;30.13;21.90;;;;;;;14.73;73.91;96331.25;5091981;28;20203;-65
2021/10/05 01:18:53;;;;;;;36.13;22.43;;;;;;;14.77;73.62;96336.91;5090981;28;20185;-65
2021/10/05 01:21:18;;;;;;;29.00;20.37;;;;;;;14.90;73.39;96339.59;5089983;28;20260;-65
2021/10/05 01:23:46;;;;;;;29.47;21.10;;;;;;;14.86;73.46;96332.28;5086056;28;20209;-67
2021/10/05 01:26:12;;;;;;;27.97;19.93;;;;;;;14.96;72.95;96337.16;5091933;28;20178;-66
2021/10/05 01:28:37;;;;;;;31.33;20.30;;;;;;;14.99;72.75;96340.22;5091448;28;20443;-66
2021/10/05 01:31:03;;;;;;;29.73;20.13;;;;;;;15.02;72.78;96333.72;5056541;28;20208;-66
2021/10/05 01:33:29;;;;;;;31.00;21.90;;;;;;;14.97;73.14;96328.25;5095030;28;20204;-66
2021/10/05 01:35:55;;;;;;;33.33;22.57;;;;;;;15.02;72.84;96325.78;5094651;28;20193;-65
2021/10/05 01:38:21;;;;;;;30.47;20.80;;;;;;;15.05;72.75;96325.41;5093649;28;20504;-66
2021/10/05 01:40:48;;;;;;;32.53;21.70;;;;;;;15.00;73.09;96327.81;5095134;28;20216;-64
2021/10/05 01:43:13;;;;;;;31.07;21.50;;;;;;;15.02;72.88;96318.72;5094713;28;20186;-65
2021/10/05 01:45:40;;;;;;;31.33;21.00;;;;;;;14.71;73.66;96314.81;5092954;28;20485;-66
2021/10/05 01:48:07;;;;;;;33.33;23.03;;;;;;;14.36;74.97;96312.25;5094296;28;20244;-66
2021/10/05 01:50:33;;;;;;;32.10;21.87;;;;;;;14.67;74.10;96323.28;5094630;28;20416;-65
2021/10/05 01:52:58;;;;;;;28.40;20.03;;;;;;;14.80;73.62;96328.63;5090393;28;20431;-64
2021/10/05 01:55:24;;;;;;;28.50;20.47;;;;;;;14.95;73.17;96332.91;5094600;28;20415;-67
2021/10/05 01:57:50;;;;;;;30.33;21.83;;;;;;;15.04;72.95;96340.44;5094153;28;20571;-67
2021/10/05 02:00:16;;;;;;;29.73;19.20;;;;;;;15.05;72.54;96347.34;5094555;28;20292;-66
2021/10/05 02:02:42;;;;;;;28.17;20.13;;;;;;;15.14;72.46;96334.72;5094987;28;20514;-67
2021/10/05 02:05:08;;;;;;;27.20;19.50;;;;;;;15.15;71.99;96325.00;5094497;28;20423;-66
2021/10/05 02:07:35;;;;;;;26.83;18.70;;;;;;;15.17;72.18;96329.06;5094181;28;20907;-66
2021/10/05 02:10:02;;;;;;;26.80;19.07;;;;;;;15.17;72.06;96323.78;5094245;28;20412;-67
2021/10/05 02:12:27;;;;;;;27.30;18.90;;;;;;;14.96;72.34;96316.06;5094501;28;21031;-65
2021/10/05 02:14:53;;;;;;;28.30;18.80;;;;;;;14.95;72.60;96306.53;5093260;28;20428;-65
2021/10/05 02:17:19;;;;;;;26.20;18.13;;;;;;;15.12;72.25;96305.09;5093905;28;20197;-65
2021/10/05 02:19:44;;;;;;;23.23;17.17;;;;;;;15.18;72.05;96293.72;5094325;28;20258;-66
2021/10/05 02:22:10;;;;;;;31.73;21.77;;;;;;;14.90;72.31;96294.75;5089818;28;20187;-63
2021/10/05 02:24:45;;;;;;;22.97;17.40;;;;;;;15.08;72.23;96298.63;5094447;28;20192;-65
2021/10/05 02:27:19;;;;;;;28.33;18.67;;;;;;;15.18;71.75;96301.66;5093848;28;20211;-65
2021/10/05 02:29:45;;;;;;;23.50;18.00;;;;;;;15.24;71.56;96299.22;5094274;28;20412;-65
2021/10/05 02:32:13;;;;;;;26.60;18.63;;;;;;;15.27;71.48;96293.53;5093402;28;20442;-66
2021/10/05 02:34:39;;;;;;;24.50;17.73;;;;;;;15.27;71.50;96285.59;5094423;28;20416;-64
2021/10/05 02:37:04;;;;;;;25.33;18.07;;;;;;;15.13;71.48;96288.25;5093677;28;20548;-65
2021/10/05 02:39:31;;;;;;;26.70;19.60;;;;;;;14.75;72.66;96288.84;5094461;28;20592;-65
2021/10/05 02:41:56;;;;;;;26.90;18.57;;;;;;;14.56;73.44;96280.69;5094766;28;20420;-65
2021/10/05 02:44:22;;;;;;;28.77;19.47;;;;;;;14.85;72.82;96276.09;5094684;28;20420;-67
2021/10/05 02:46:48;;;;;;;26.20;18.50;;;;;;;14.89;72.67;96274.66;5095441;28;20181;-67
2021/10/05 02:49:14;;;;;;;30.00;17.27;;;;;;;14.99;72.32;96273.47;5095246;28;20470;-66
2021/10/05 02:51:40;;;;;;;27.33;19.63;;;;;;;14.89;72.33;96271.22;5091174;28;20965;-67
2021/10/05 02:54:06;;;;;;;25.47;17.20;;;;;;;14.88;72.37;96278.28;5093034;28;20205;-65
2021/10/05 02:56:31;;;;;;;24.53;16.90;;;;;;;14.94;72.23;96275.88;5105726;28;20565;-69
2021/10/05 02:58:57;;;;;;;22.97;16.50;;;;;;;14.99;71.87;96274.25;5102210;28;20185;-66
2021/10/05 03:01:23;;;;;;;23.77;16.80;;;;;;;15.03;71.91;96269.38;5106685;28;20687;-66
2021/10/05 03:03:48;;;;;;;27.00;18.33;;;;;;;15.06;71.71;96268.97;5100747;28;20235;-66
2021/10/05 03:06:14;;;;;;;22.53;15.80;;;;;;;14.74;72.60;96266.94;5100635;28;20234;-66
2021/10/05 03:08:41;;;;;;;22.50;15.73;;;;;;;14.39;74.11;96268.88;5105146;28;20198;-66
2021/10/05 03:11:09;;;;;;;21.03;15.30;;;;;;;14.48;73.93;96270.31;5099022;28;20264;-66
2021/10/05 03:13:35;;;;;;;38.83;19.70;;;;;;;14.58;73.59;96275.19;5079915;28;20484;-64
2021/10/05 03:16:10;;;;;;;38.63;18.97;;;;;;;14.73;73.10;96275.84;5093016;28;20408;-64
2021/10/05 03:18:35;;;;;;;36.33;19.23;;;;;;;14.72;72.85;96262.88;5087482;28;20957;-65
2021/10/05 03:21:01;;;;;;;26.83;17.97;;;;;;;14.66;73.61;96253.09;5092617;28;20463;-65
2021/10/05 03:23:27;;;;;;;34.77;19.07;;;;;;;14.51;73.78;96250.66;5093379;28;20238;-65
2021/10/05 03:25:53;;;;;;;88.73;28.60;;;;;;;14.37;74.72;96234.00;5092888;28;20177;-67
2021/10/05 03:28:19;;;;;;;62.20;23.07;;;;;;;14.17;76.04;96240.03;5092570;28;20232;-65
2021/10/05 03:30:44;;;;;;;35.20;18.37;;;;;;;14.13;75.70;96229.09;5092674;28;20415;-65
2021/10/05 03:33:10;;;;;;;24.13;15.70;;;;;;;14.09;75.90;96232.31;5092644;28;20418;-64
2021/10/05 03:35:35;;;;;;;25.73;16.40;;;;;;;14.17;75.85;96234.75;5092957;28;20186;-66
2021/10/05 03:38:01;;;;;;;24.50;15.47;;;;;;;14.43;74.91;96241.09;5090738;28;20193;-64
2021/10/05 03:40:27;;;;;;;25.10;14.90;;;;;;;14.29;75.28;96248.19;5093040;28;20580;-65
2021/10/05 03:42:53;;;;;;;25.60;15.17;;;;;;;14.20;75.46;96247.56;5086325;28;20180;-65
2021/10/05 03:45:18;;;;;;;26.73;15.40;;;;;;;14.24;75.68;96255.88;5099738;28;20436;-64
2021/10/05 03:47:44;;;;;;;29.40;16.70;;;;;;;14.42;74.78;96263.19;5099807;28;20262;-65
2021/10/05 03:50:10;;;;;;;24.10;15.70;;;;;;;14.45;74.57;96252.28;5094109;28;20178;-65
2021/10/05 03:52:37;;;;;;;23.07;13.30;;;;;;;14.50;74.39;96252.47;5083492;28;20189;-66
2021/10/05 03:55:05;;;;;;;21.37;13.20;;;;;;;14.54;74.33;96247.63;5091877;28;20772;-66
2021/10/05 03:57:30;;;;;;;22.90;14.13;;;;;;;14.08;75.62;96247.31;5093702;28;20991;-65
2021/10/05 03:59:56;;;;;;;22.53;14.60;;;;;;;14.10;75.77;96244.50;5098865;28;20507;-65
2021/10/05 04:02:22;;;;;;;20.47;12.20;;;;;;;14.36;75.18;96248.19;5101641;28;20170;-65
2021/10/05 04:04:47;;;;;;;19.87;13.30;;;;;;;14.32;75.25;96258.31;5099335;28;20242;-64
2021/10/05 04:07:13;;;;;;;20.13;12.90;;;;;;;14.34;74.97;96261.56;5096738;28;20565;-63
2021/10/05 04:09:38;;;;;;;26.90;12.30;;;;;;;14.36;74.97;96269.28;5092211;28;20259;-66
2021/10/05 04:12:04;;;;;;;18.70;12.77;;;;;;;14.28;74.96;96273.72;5089281;28;20182;-66
2021/10/05 04:14:30;;;;;;;20.30;12.70;;;;;;;14.47;74.45;96273.97;5086150;28;20673;-65
2021/10/05 04:16:55;;;;;;;19.50;12.77;;;;;;;14.38;74.52;96268.06;5093391;28;20194;-63
2021/10/05 04:19:21;;;;;;;18.60;11.90;;;;;;;14.51;74.26;96275.19;5091749;28;20216;-65
2021/10/05 04:21:46;;;;;;;18.90;12.47;;;;;;;14.63;74.07;96272.78;5091525;28;20265;-65
2021/10/05 04:24:12;;;;;;;27.77;14.50;;;;;;;14.67;73.95;96273.19;5091710;28;20700;-65
2021/10/05 04:26:38;;;;;;;22.60;13.17;;;;;;;14.53;74.00;96259.97;5091879;28;20227;-65
2021/10/05 04:29:03;;;;;;;20.60;12.70;;;;;;;14.67;73.79;96252.09;5091537;28;20231;-65
2021/10/05 04:31:29;;;;;;;20.57;12.90;;;;;;;14.72;73.35;96241.78;5091606;28;20188;-65
2021/10/05 04:33:54;;;;;;;18.50;11.90;;;;;;;14.64;73.44;96236.66;5091436;28;20284;-65
2021/10/05 04:36:20;;;;;;;20.07;12.63;;;;;;;14.78;73.52;96224.34;5091495;28;20651;-65
2021/10/05 04:38:46;;;;;;;18.60;11.37;;;;;;;14.84;73.39;96219.06;5091228;28;20244;-65
2021/10/05 04:41:11;;;;;;;20.60;12.03;;;;;;;14.71;73.38;96229.63;5090891;28;20204;-66
2021/10/05 04:43:37;;;;;;;20.70;12.27;;;;;;;14.58;73.92;96225.94;5081896;28;20181;-66
2021/10/05 04:46:03;;;;;;;18.87;12.33;;;;;;;14.65;73.65;96233.00;5097989;28;20265;-67
2021/10/05 04:48:29;;;;;;;18.60;11.90;;;;;;;14.57;73.80;96228.75;5091297;28;20712;-66
2021/10/05 04:50:54;;;;;;;17.70;11.77;;;;;;;14.69;73.69;96231.63;5091019;28;20170;-64
2021/10/05 04:53:20;;;;;;;21.13;12.30;;;;;;;14.67;73.55;96225.72;5091412;28;20277;-66
2021/10/05 04:55:48;;;;;;;18.20;11.10;;;;;;;14.71;73.06;96219.06;5091419;28;20234;-65
2021/10/05 04:58:14;;;;;;;16.53;10.10;;;;;;;14.53;74.07;96211.72;5082420;28;20197;-65
2021/10/05 05:00:40;;;;;;;22.47;11.90;;;;;;;14.63;73.47;96208.66;5091055;28;20554;-65
2021/10/05 05:03:05;;;;;;;19.80;12.10;;;;;;;14.50;73.61;96196.31;5090802;28;20514;-65
2021/10/05 05:05:31;;;;;;;17.83;11.20;;;;;;;14.61;73.74;96200.19;5090935;28;20189;-64
2021/10/05 05:08:00;;;;;;;20.20;12.23;;;;;;;14.51;74.17;96201.38;5095613;28;20208;-66
2021/10/05 05:10:26;;;;;;;19.10;12.40;;;;;;;14.39;74.55;96195.06;5098083;28;20177;-66
2021/10/05 05:12:52;;;;;;;19.20;11.77;;;;;;;14.35;74.45;96194.66;5092750;28;20424;-66
2021/10/05 05:15:18;;;;;;;22.00;12.03;;;;;;;14.35;74.92;96199.94;5098000;28;20459;-66
2021/10/05 05:17:44;;;;;;;21.70;12.83;;;;;;;14.56;74.14;96195.47;5097409;28;20200;-65
2021/10/05 05:20:10;;;;;;;20.63;12.00;;;;;;;14.60;73.80;96186.16;5097514;28;20452;-66
2021/10/05 05:22:36;;;;;;;19.07;12.00;;;;;;;14.44;74.37;96197.94;5095952;28;20540;-66
2021/10/05 05:25:03;;;;;;;18.53;11.10;;;;;;;14.54;73.82;96194.91;5098270;27;20181;-67
2021/10/05 05:27:29;;;;;;;21.17;12.37;;;;;;;14.38;74.11;96196.06;5097978;28;20444;-66
2021/10/05 05:29:54;;;;;;;19.10;11.20;;;;;;;14.50;73.82;96196.31;5097955;28;20926;-66
2021/10/05 05:32:20;;;;;;;23.97;13.67;;;;;;;14.56;73.92;96192.84;5097976;28;20173;-67
2021/10/05 05:34:45;;;;;;;21.43;10.70;;;;;;;14.56;73.76;96193.69;5097637;28;20181;-66
2021/10/05 05:37:12;;;;;;;22.20;12.00;;;;;;;14.49;73.66;96195.47;5097116;28;20292;-67
2021/10/05 05:39:40;;;;;;;21.50;11.00;;;;;;;14.41;73.98;96193.06;5098213;28;20689;-65
2021/10/05 05:42:10;;;;;;;17.03;11.03;;;;;;;14.22;74.62;96198.09;5096387;28;20769;-66
2021/10/05 05:44:36;;;;;;;20.10;11.67;;;;;;;14.40;73.96;96197.53;5097979;28;20430;-66
2021/10/05 05:47:03;;;;;;;18.20;11.53;;;;;;;14.37;74.34;96194.44;5098061;28;20447;-65
2021/10/05 05:49:28;;;;;;;16.87;10.63;;;;;;;14.40;74.09;96197.53;5096357;28;20431;-65
2021/10/05 05:51:54;;;;;;;19.70;11.50;;;;;;;14.24;74.56;96198.69;5094525;28;20428;-66
2021/10/05 05:54:20;;;;;;;18.73;11.20;;;;;;;14.18;75.18;96183.69;5097579;28;20700;-65
2021/10/05 05:56:45;;;;;;;19.30;11.60;;;;;;;14.29;74.60;96183.09;5090668;28;20255;-65
2021/10/05 05:59:11;;;;;;;23.23;12.20;;;;;;;14.43;74.46;96191.03;5097368;28;20177;-64
2021/10/05 06:01:37;;;;;;;19.93;10.90;;;;;;;14.56;73.77;96198.13;5097970;28;20182;-65
2021/10/05 06:04:02;;;;;;;17.97;10.87;;;;;;;14.43;74.07;96181.28;5097338;28;20185;-65
2021/10/05 06:06:32;;;;;;;18.10;10.40;;;;;;;14.21;75.19;96177.22;5097685;28;20546;-66
2021/10/05 06:08:59;;;;;;;14.93;9.63;;;;;;;14.44;74.25;96184.75;5095766;28;20545;-66
2021/10/05 06:11:26;;;;;;;14.73;10.00;;;;;;;14.59;73.49;96180.09;5097935;28;20428;-65
2021/10/05 06:13:52;;;;;;;15.47;9.87;;;;;;;14.59;73.48;96180.09;5097530;28;20485;-67
2021/10/05 06:16:17;;;;;;;13.40;9.30;;;;;;;14.52;73.50;96174.00;5097554;28;20424;-66
2021/10/05 06:18:43;;;;;;;16.70;11.17;;;;;;;14.57;73.00;96170.75;5096013;28;20205;-66
2021/10/05 06:21:12;;;;;;;15.53;10.23;;;;;;;14.79;72.87;96189.03;5093976;28;20237;-66
2021/10/05 06:23:38;;;;;;;14.37;9.70;;;;;;;14.69;72.40;96176.25;5092348;28;20422;-65
2021/10/05 06:26:04;;;;;;;14.53;10.20;;;;;;;14.58;72.74;96167.94;5093972;28;20511;-67
2021/10/05 06:28:31;;;;;;;12.43;9.30;;;;;;;14.81;72.35;96172.00;5093485;28;20436;-66
2021/10/05 06:30:57;;;;;;;14.03;9.70;;;;;;;14.82;71.68;96168.34;5093344;28;20519;-67
2021/10/05 06:33:22;;;;;;;14.63;8.77;;;;;;;14.92;71.66;96172.38;5094079;28;20427;-66
2021/10/05 06:35:48;;;;;;;14.27;9.70;;;;;;;14.95;71.53;96172.78;5093846;28;20193;-66
2021/10/05 06:38:14;;;;;;;17.03;10.90;;;;;;;15.10;71.65;96164.66;5085528;28;20198;-64
2021/10/05 06:40:40;;;;;;;18.07;10.80;;;;;;;14.95;72.03;96164.06;5092640;28;20197;-65
2021/10/05 06:43:06;;;;;;;14.70;8.70;;;;;;;14.74;71.07;96160.66;5093792;28;20194;-65
2021/10/05 06:45:32;;;;;;;14.50;8.50;;;;;;;14.91;71.19;96150.47;5095276;28;20940;-66
2021/10/05 06:47:59;;;;;;;12.90;8.90;;;;;;;15.05;70.87;96162.63;5094522;28;20245;-66
2021/10/05 06:50:25;;;;;;;14.07;7.93;;;;;;;14.44;73.00;96161.03;5094557;28;20425;-66
2021/10/05 06:52:52;;;;;;;12.50;8.50;;;;;;;14.73;72.15;96162.47;5090988;28;20420;-66
2021/10/05 06:55:17;;;;;;;12.60;8.10;;;;;;;15.07;71.25;96164.25;5095173;28;20505;-66
2021/10/05 06:57:43;;;;;;;13.40;8.30;;;;;;;15.28;70.50;96144.69;5092038;28;20475;-67
2021/10/05 07:00:15;;;;;;;13.93;8.20;;;;;;;15.42;70.11;96146.28;5092966;28;20267;-66
2021/10/05 07:02:43;;;;;;;13.27;9.33;;;;;;;15.52;69.95;96145.84;5093853;28;20173;-67
2021/10/05 07:05:09;;;;;;;10.63;8.07;;;;;;;15.67;69.66;96153.50;5093295;28;20439;-65
2021/10/05 07:07:42;;;;;;;10.40;8.17;;;;;;;15.69;69.27;96151.44;5092923;28;20767;-67
2021/10/05 07:10:09;;;;;;;10.37;6.80;;;;;;;15.71;69.03;96153.88;5093061;28;20412;-65
2021/10/05 07:12:35;;;;;;;10.70;6.63;;;;;;;15.81;68.87;96152.41;5093271;28;20842;-65
2021/10/05 07:15:03;;;;;;;7.80;6.33;;;;;;;15.99;68.67;96153.56;5092164;28;20420;-68
2021/10/05 07:17:28;;;;;;;8.13;5.67;;;;;;;16.13;68.22;96156.94;5092838;28;20197;-66
2021/10/05 07:19:54;;;;;;;8.23;6.80;;;;;;;16.09;67.42;96153.91;5093064;28;20500;-67
2021/10/05 07:22:19;;;;;;;9.80;7.00;;;;;;;15.98;68.04;96154.59;5091236;28;20256;-67
2021/10/05 07:24:45;;;;;;;9.93;7.70;;;;;;;16.08;67.90;96157.56;5092912;28;20582;-66
2021/10/05 07:27:11;;;;;;;10.33;7.37;;;;;;;16.14;67.79;96150.63;5093392;28;20232;-65
2021/10/05 07:29:36;;;;;;;13.93;8.03;;;;;;;15.93;67.83;96162.34;5096975;28;20644;-67
2021/10/05 07:32:03;;;;;;;14.37;9.80;;;;;;;15.79;68.42;96151.81;5092980;28;20416;-66
2021/10/05 07:34:28;;;;;;;17.07;10.43;;;;;;;15.80;69.00;96148.16;5091658;28;20223;-66
2021/10/05 07:36:54;;;;;;;17.90;10.63;;;;;;;15.79;69.02;96149.16;5092894;28;20542;-66
2021/10/05 07:39:19;;;;;;;17.97;11.00;;;;;;;15.54;69.21;96158.81;5092535;28;20198;-64
2021/10/05 07:41:45;;;;;;;18.03;11.23;;;;;;;15.78;68.81;96150.19;5093127;28;20553;-66
2021/10/05 07:44:12;;;;;;;19.97;12.73;;;;;;;15.59;69.37;96151.09;5093159;28;20212;-67
2021/10/05 07:46:38;;;;;;;14.13;10.30;;;;;;;15.82;68.90;96140.81;5093026;28;20178;-65
2021/10/05 07:49:05;;;;;;;14.80;9.70;;;;;;;15.82;68.74;96140.00;5092461;28;20424;-66
2021/10/05 07:51:31;;;;;;;11.93;8.73;;;;;;;15.94;68.26;96148.09;5093387;28;20424;-66
2021/10/05 07:53:56;;;;;;;15.17;10.03;;;;;;;15.96;68.25;96140.78;5091698;28;20492;-65
2021/10/05 07:56:22;;;;;;;14.37;10.20;;;;;;;15.90;68.43;96138.97;5089149;28;20173;-65
2021/10/05 07:58:51;;;;;;;13.10;10.17;;;;;;;15.96;68.36;96135.50;5093315;28;20280;-64
2021/10/05 08:01:16;;;;;;;12.63;9.07;;;;;;;15.95;68.37;96139.16;5093865;28;20452;-66
2021/10/05 08:03:42;;;;;;;15.03;9.30;;;;;;;15.91;67.68;96132.66;5093407;28;20169;-65
2021/10/05 08:06:08;;;;;;;18.03;8.77;;;;;;;15.95;67.98;96136.53;5092617;28;20602;-66
2021/10/05 08:08:33;;;;;;;17.13;8.30;;;;;;;15.94;67.95;96143.63;5092282;28;20232;-67
2021/10/05 08:10:59;;;;;;;15.77;8.23;;;;;;;16.04;67.55;96148.44;5092493;28;20251;-65
2021/10/05 08:13:24;;;;;;;12.93;8.77;;;;;;;16.18;67.27;96153.66;5094340;28;20197;-65
2021/10/05 08:15:51;;;;;;;13.20;8.17;;;;;;;16.07;67.75;96147.19;5093566;28;20185;-67
2021/10/05 08:18:16;;;;;;;10.43;8.20;;;;;;;16.10;67.28;96146.78;5095115;28;20193;-67
2021/10/05 08:20:43;;;;;;;10.30;8.07;;;;;;;15.96;67.36;96148.72;5098353;28;20831;-67
2021/10/05 08:23:08;;;;;;;9.60;7.80;;;;;;;16.01;67.77;96154.16;5094155;28;20189;-66
2021/10/05 08:25:34;;;;;;;11.60;6.93;;;;;;;15.99;67.15;96150.94;5095582;28;20416;-64
2021/10/05 08:28:00;;;;;;;9.27;7.37;;;;;;;16.07;66.94;96152.50;5095495;28;20201;-66
2021/10/05 08:30:25;;;;;;;9.50;6.63;;;;;;;16.10;67.17;96146.78;5094887;28;20499;-65
2021/10/05 08:32:51;;;;;;;9.03;6.80;;;;;;;16.08;67.47;96152.28;5093281;28;20575;-66
2021/10/05 08:35:17;;;;;;;9.30;7.00;;;;;;;16.13;67.49;96155.09;5092943;28;20197;-65
2021/10/05 08:37:42;;;;;;;8.47;6.87;;;;;;;16.21;67.27;96155.88;5093232;28;20197;-66
2021/10/05 08:40:10;;;;;;;7.77;6.97;;;;;;;16.32;67.00;96163.13;5091371;28;20258;-66
2021/10/05 08:42:36;;;;;;;7.73;5.87;;;;;;;16.46;66.87;96152.44;5092273;28;20197;-66
2021/10/05 08:45:03;;;;;;;7.00;6.30;;;;;;;16.65;66.37;96154.09;5091503;28;20949;-65
2021/10/05 08:47:29;;;;;;;7.90;5.90;;;;;;;16.56;65.58;96158.06;5091813;28;20359;-65
2021/10/05 08:49:55;;;;;;;7.57;6.50;;;;;;;16.52;65.77;96154.22;5090842;28;20419;-66
2021/10/05 08:52:21;;;;;;;11.10;7.23;;;;;;;16.45;66.53;96156.09;5090424;28;20176;-64
2021/10/05 08:54:47;;;;;;;8.33;6.63;;;;;;;16.41;67.31;96161.81;5099683;28;20685;-65
2021/10/05 08:57:13;;;;;;;8.30;6.90;;;;;;;16.37;67.11;96155.38;5106505;28;20185;-67
2021/10/05 08:59:39;;;;;;;6.70;6.00;;;;;;;15.91;68.71;96159.09;5097600;28;20213;-67
2021/10/05 09:02:16;;;;;;;7.20;6.30;;;;;;;16.39;66.58;96160.41;5092365;28;20842;-67
2021/10/05 09:04:43;;;;;;;7.90;6.53;;;;;;;16.23;66.90;96153.84;5093142;28;20996;-66
2021/10/05 09:07:19;;;;;;;7.20;6.00;;;;;;;16.35;67.01;96154.75;5091799;28;20477;-66
2021/10/05 09:10:02;;;;;;;7.53;6.63;;;;;;;16.56;66.51;96156.22;5098106;28;21002;-66
2021/10/05 09:12:32;;;;;;;10.00;7.80;;;;;;;16.57;66.62;96162.31;5106753;28;20438;-66
2021/10/05 09:14:59;;;;;;;8.33;6.90;;;;;;;16.79;65.65;96159.28;5103826;28;20422;-66
2021/10/05 09:17:27;;;;;;;10.67;7.10;;;;;;;16.85;65.41;96155.78;5099971;28;20440;-65
2021/10/05 09:19:55;;;;;;;9.70;7.27;;;;;;;16.63;65.31;96158.81;5091652;28;20451;-66
2021/10/05 09:22:25;;;;;;;12.23;7.47;;;;;;;17.08;65.20;96157.00;5088523;28;20498;-64
2021/10/05 09:24:53;;;;;;;9.60;7.90;;;;;;;16.89;65.27;96155.13;5091358;28;20407;-66
2021/10/05 09:27:19;;;;;;;8.23;6.60;;;;;;;17.41;64.39;96155.84;5091562;28;20950;-67
2021/10/05 09:29:47;;;;;;;9.87;7.60;;;;;;;17.50;64.16;96157.19;5091350;28;20443;-66
2021/10/05 09:32:16;;;;;;;12.30;8.43;;;;;;;16.68;66.02;96160.81;5090779;28;20422;-66
2021/10/05 09:34:44;;;;;;;10.80;7.80;;;;;;;16.89;65.38;96159.59;5090010;28;20507;-68
2021/10/05 09:37:29;;;;;;;14.67;9.40;;;;;;;17.42;64.11;96157.47;5090565;28;20538;-65
2021/10/05 09:40:12;;;;;;;11.13;8.10;;;;;;;17.66;63.25;96153.91;5091025;28;20447;-65
2021/10/05 09:42:43;;;;;;;8.43;7.50;;;;;;;17.76;62.37;96153.38;5069583;28;20424;-66
2021/10/05 09:45:16;;;;;;;10.47;7.90;;;;;;;17.55;63.41;96141.41;5090193;28;20424;-66
2021/10/05 09:47:46;;;;;;;8.47;7.17;;;;;;;17.59;63.26;96141.78;5090543;28;20826;-66
2021/10/05 09:50:24;;;;;;;11.30;7.20;;;;;;;17.90;61.03;96138.09;5091095;28;20495;-66
2021/10/05 09:52:51;;;;;;;7.47;6.33;;;;;;;17.99;61.57;96132.53;5087351;28;20435;-66
2021/10/05 09:55:20;;;;;;;7.07;5.70;;;;;;;18.26;60.30;96115.19;5094488;28;20901;-66
2021/10/05 09:57:46;;;;;;;6.23;5.47;;;;;;;18.47;59.51;96078.56;5094138;28;20818;-67
2021/10/05 10:00:12;;;;;;;7.97;5.93;;;;;;;18.30;60.26;96083.72;5094230;28;21030;-67
2021/10/05 10:02:39;;;;;;;6.90;5.80;;;;;;;18.25;60.71;96087.06;5094407;28;20461;-67
2021/10/05 10:05:07;;;;;;;8.10;5.33;;;;;;;18.32;59.34;96094.09;5094239;28;20443;-66
2021/10/05 10:07:39;;;;;;;5.70;5.07;;;;;;;18.26;59.88;96090.50;5093805;28;20431;-65
2021/10/05 10:10:07;;;;;;;5.30;4.80;;;;;;;18.33;59.52;96087.75;5093265;28;20415;-67
2021/10/05 10:12:34;;;;;;;6.93;5.23;;;;;;;18.45;59.14;96099.19;5094657;28;20430;-65
2021/10/05 10:15:01;;;;;;;7.63;4.10;;;;;;;18.36;59.37;96108.53;5094037;28;20526;-67
2021/10/05 10:17:27;;;;;;;4.30;3.90;;;;;;;18.03;59.03;96107.16;5092513;28;20518;-64
2021/10/05 10:19:52;;;;;;;14.50;4.00;;;;;;;18.19;59.64;96108.38;5094291;28;20888;-67
2021/10/05 10:22:18;;;;;;;5.23;4.70;;;;;;;18.25;59.38;96110.94;5092081;28;20196;-67
2021/10/05 10:24:49;;;;;;;4.80;4.40;;;;;;;18.30;59.43;96109.41;5094005;28;20648;-67
2021/10/05 10:27:15;;;;;;;6.47;5.80;;;;;;;18.46;59.70;96111.41;5093670;28;20304;-67
2021/10/05 10:29:41;;;;;;;6.23;3.87;;;;;;;18.33;59.37;96108.97;5093777;28;20408;-66
2021/10/05 10:32:17;;;;;;;4.77;4.27;;;;;;;18.53;60.07;96106.00;5092624;28;20422;-66
2021/10/05 10:34:45;;;;;;;5.63;5.00;;;;;;;18.35;60.13;96099.75;5093570;28;20173;-67
2021/10/05 10:37:18;;;;;;;4.10;3.80;;;;;;;18.49;60.30;96107.50;5092916;28;20451;-66
2021/10/05 10:39:46;;;;;;;5.63;4.87;;;;;;;18.16;60.53;96106.19;5093467;28;20479;-66
2021/10/05 10:42:16;;;;;;;5.10;4.57;;;;;;;18.21;62.11;96104.47;5093470;28;20408;-67
2021/10/05 10:44:42;;;;;;;8.70;6.10;;;;;;;18.42;61.80;96099.63;5096444;28;20424;-68
2021/10/05 10:47:12;;;;;;;6.70;5.40;;;;;;;18.71;61.85;96094.47;5093484;28;22234;-67
2021/10/05 10:49:38;;;;;;;3.80;3.50;;;;;;;18.80;59.90;96098.38;5093886;28;20201;-67
2021/10/05 10:52:04;;;;;;;6.33;3.50;;;;;;;18.83;60.69;96099.78;5092154;28;20444;-66
2021/10/05 10:54:30;;;;;;;4.00;3.60;;;;;;;18.69;60.86;96105.31;5094035;28;20173;-67
2021/10/05 10:57:00;;;;;;;5.93;3.53;;;;;;;18.58;60.91;96098.16;5094933;28;20427;-66
2021/10/05 10:59:26;;;;;;;3.43;3.13;;;;;;;18.11;61.81;96098.91;5094446;28;20205;-66
2021/10/05 11:01:52;;;;;;;3.70;3.40;;;;;;;18.45;61.43;96107.16;5093753;28;20941;-66
2021/10/05 11:04:20;;;;;;;3.80;3.23;;;;;;;18.69;61.57;96099.19;5092780;28;20435;-65
2021/10/05 11:06:51;;;;;;;2.67;2.47;;;;;;;18.45;61.54;96104.50;5092923;28;20430;-66
2021/10/05 11:09:17;;;;;;;3.50;3.20;;;;;;;18.22;63.33;96102.59;5092676;28;20435;-67
2021/10/05 11:11:57;;;;;;;3.63;2.70;;;;;;;18.31;62.85;96111.03;5091688;28;20419;-67
2021/10/05 11:14:38;;;;;;;2.80;2.50;;;;;;;17.79;63.63;96107.06;5093120;28;20620;-67
2021/10/05 11:17:05;;;;;;;2.83;2.63;;;;;;;18.14;62.89;96109.06;5093038;28;20524;-66
2021/10/05 11:19:35;;;;;;;3.80;3.37;;;;;;;18.53;62.09;96098.84;5092855;28;20517;-66